Time;durP1;ratioP1;P1;durP2;ratioP2;P2;SDS_P1;SDS_P2;PMS_P1;PMS_P2;Temp;Humidity;BMP_temperature;BMP_pressure;BME280_temperature;BME280_humidity;BME280_pressure;Samples;Min_cycle;Max_cycle;Signal;HPM_P1;HPM_P2
2022/10/19 00:02:06;;;;;;;5.73;1.30;;;11.00;92.60;;;;;;5061730;28;20089;-86
2022/10/19 00:04:32;;;;;;;12.17;0.80;;;11.00;92.60;;;;;;5094523;28;20028;-85
2022/10/19 00:06:57;;;;;;;6.77;1.17;;;11.00;92.60;;;;;;5094692;28;20020;-85
2022/10/19 00:09:23;;;;;;;12.30;1.83;;;11.00;92.80;;;;;;5060455;28;20123;-85
2022/10/19 00:11:50;;;;;;;6.30;1.00;;;11.00;92.70;;;;;;5077120;28;20044;-85
2022/10/19 00:14:22;;;;;;;3.93;1.03;;;11.00;92.70;;;;;;5077331;28;20091;-85
2022/10/19 00:16:49;;;;;;;6.50;1.07;;;10.90;92.80;;;;;;5093995;28;20496;-86
2022/10/19 00:19:19;;;;;;;6.30;1.20;;;10.80;92.80;;;;;;5093907;28;20020;-85
2022/10/19 00:21:44;;;;;;;4.30;1.53;;;10.90;92.90;;;;;;5094234;28;20020;-85
2022/10/19 00:24:10;;;;;;;7.23;1.30;;;10.90;92.90;;;;;;5076942;28;20422;-86
2022/10/19 00:26:36;;;;;;;9.93;1.20;;;10.80;93.00;;;;;;5093107;28;20012;-86
2022/10/19 00:29:03;;;;;;;9.00;1.60;;;10.80;93.10;;;;;;5059992;28;20024;-86
2022/10/19 00:31:29;;;;;;;5.20;1.03;;;10.80;93.10;;;;;;5093434;28;20028;-86
2022/10/19 00:33:56;;;;;;;7.53;1.00;;;10.80;93.20;;;;;;5093854;28;20058;-85
2022/10/19 00:36:24;;;;;;;8.83;1.07;;;10.80;93.30;;;;;;5094942;28;20035;-86
2022/10/19 00:38:51;;;;;;;11.37;2.27;;;10.70;93.30;;;;;;5094462;28;20469;-85
2022/10/19 00:41:18;;;;;;;5.33;0.70;;;10.70;93.40;;;;;;5077907;28;20391;-85
2022/10/19 00:44:27;;;;;;;7.57;1.17;;;10.70;93.50;;;;;;5076922;28;20024;-85
2022/10/19 00:46:53;;;;;;;5.10;1.00;;;10.70;93.60;;;;;;5093510;28;20081;-85
2022/10/19 00:49:22;;;;;;;4.10;0.80;;;10.70;93.70;;;;;;5093810;28;20024;-86
2022/10/19 00:51:53;;;;;;;5.17;1.37;;;10.60;93.70;;;;;;5093628;28;20058;-86
2022/10/19 00:54:19;;;;;;;6.13;1.73;;;10.60;93.80;;;;;;5093284;28;20020;-86
2022/10/19 00:56:47;;;;;;;8.30;1.07;;;10.60;93.80;;;;;;5092979;28;20111;-85
2022/10/19 00:59:17;;;;;;;8.13;1.60;;;10.60;93.90;;;;;;5093589;28;20024;-86
2022/10/19 01:01:43;;;;;;;4.70;1.03;;;10.50;93.90;;;;;;5098204;28;20016;-85
2022/10/19 01:04:11;;;;;;;4.50;0.90;;;10.50;94.00;;;;;;5081001;28;20020;-85
2022/10/19 01:06:38;;;;;;;6.70;1.17;;;10.50;94.00;;;;;;5096135;28;20028;-85
2022/10/19 01:09:05;;;;;;;5.30;0.93;;;10.50;94.10;;;;;;5093238;28;20062;-86
2022/10/19 01:11:38;;;;;;;10.10;1.33;;;10.40;94.20;;;;;;5059689;28;20068;-85
2022/10/19 01:14:39;;;;;;;11.63;1.30;;;10.40;94.30;;;;;;5092809;28;20107;-86
2022/10/19 01:17:27;;;;;;;6.83;0.90;;;10.40;94.40;;;;;;5092557;28;20026;-86
2022/10/19 01:20:17;;;;;;;8.17;1.00;;;10.40;94.50;;;;;;5092558;28;20028;-86
2022/10/19 01:23:20;;;;;;;6.13;1.70;;;10.30;94.50;;;;;;5092578;28;20020;-85
2022/10/19 01:25:57;;;;;;;6.00;1.03;;;10.30;94.70;;;;;;5092703;28;20115;-86
2022/10/19 01:28:53;;;;;;;8.57;1.37;;;10.20;94.70;;;;;;5094005;28;20024;-85
2022/10/19 01:31:51;;;;;;;10.30;2.00;;;10.20;94.80;;;;;;5098734;28;20490;-86
2022/10/19 01:34:21;;;;;;;3.93;1.20;;;10.20;94.90;;;;;;5096924;28;20047;-86
2022/10/19 01:37:00;;;;;;;6.90;1.53;;;10.20;94.90;;;;;;5095918;28;20028;-86
2022/10/19 01:39:39;;;;;;;6.73;1.40;;;10.10;95.00;;;;;;5097198;28;20388;-86
2022/10/19 01:42:14;;;;;;;7.67;1.40;;;10.10;95.10;;;;;;5097003;28;20020;-86
2022/10/19 01:44:53;;;;;;;4.30;1.47;;;10.00;95.20;;;;;;5097245;28;20008;-85
2022/10/19 01:47:41;;;;;;;5.80;1.60;;;10.00;95.30;;;;;;5096920;28;20012;-86
2022/10/19 01:50:07;;;;;;;8.40;1.53;;;9.90;95.40;;;;;;5099650;28;20043;-86
2022/10/19 01:52:33;;;;;;;9.30;1.80;;;9.90;95.40;;;;;;5100018;28;20472;-85
2022/10/19 01:55:02;;;;;;;6.27;1.60;;;9.90;95.60;;;;;;5084116;28;20024;-86
2022/10/19 01:57:35;;;;;;;8.10;1.73;;;9.90;95.60;;;;;;5100644;28;20023;-86
2022/10/19 02:00:06;;;;;;;5.47;1.40;;;9.90;95.70;;;;;;5099274;28;20017;-86
2022/10/19 02:02:38;;;;;;;6.20;1.37;;;9.80;95.80;;;;;;5096803;28;20016;-86
2022/10/19 02:05:06;;;;;;;6.70;1.70;;;9.80;95.90;;;;;;5096523;28;20016;-86
2022/10/19 02:07:33;;;;;;;3.10;1.23;;;9.80;95.90;;;;;;5096587;28;20043;-85
2022/10/19 02:09:59;;;;;;;6.20;1.70;;;9.60;95.90;;;;;;5079536;28;20472;-86
2022/10/19 02:12:27;;;;;;;9.53;1.60;;;9.70;96.10;;;;;;5079418;28;20020;-86
2022/10/19 02:14:56;;;;;;;4.77;1.83;;;9.70;96.10;;;;;;5079243;28;20031;-86
2022/10/19 02:17:33;;;;;;;6.43;1.83;;;9.70;96.20;;;;;;5096001;28;20023;-86
2022/10/19 02:20:00;;;;;;;10.70;2.37;;;9.60;96.30;;;;;;5096044;28;20044;-86
2022/10/19 02:22:26;;;;;;;6.83;1.60;;;9.60;96.30;;;;;;5079209;28;20362;-86
2022/10/19 02:24:51;;;;;;;10.03;2.37;;;9.60;96.40;;;;;;5079133;28;20095;-86
2022/10/19 02:27:17;;;;;;;5.30;2.00;;;9.60;96.50;;;;;;5095981;28;20012;-86
2022/10/19 02:29:43;;;;;;;3.73;1.60;;;9.50;96.50;;;;;;5079102;28;20392;-85
2022/10/19 02:32:10;;;;;;;7.43;1.90;;;9.40;96.50;;;;;;5079268;28;20024;-86
2022/10/19 02:34:37;;;;;;;7.33;1.43;;;9.50;96.60;;;;;;5078932;28;20031;-85
2022/10/19 02:37:04;;;;;;;4.83;1.40;;;9.40;96.70;;;;;;5095955;28;20483;-86
2022/10/19 02:39:29;;;;;;;6.27;1.57;;;9.40;96.80;;;;;;5078959;28;20032;-85
2022/10/19 02:42:05;;;;;;;4.17;0.97;;;9.30;96.80;;;;;;5096387;28;20460;-85
2022/10/19 02:44:49;;;;;;;6.73;1.23;;;9.30;96.90;;;;;;5095730;28;20085;-85
2022/10/19 02:47:25;;;;;;;2.60;0.98;;;9.30;97.00;;;;;;5095656;28;20102;-85
2022/10/19 02:49:51;;;;;;;4.80;1.03;;;9.20;97.00;;;;;;5094582;28;20058;-85
2022/10/19 02:52:17;;;;;;;6.70;1.47;;;9.20;97.00;;;;;;5095759;28;20032;-86
2022/10/19 02:54:44;;;;;;;5.03;1.30;;;9.10;97.00;;;;;;5078966;28;20111;-86
2022/10/19 02:57:17;;;;;;;7.97;1.63;;;9.10;97.20;;;;;;5095442;28;20032;-86
2022/10/19 02:59:42;;;;;;;4.83;1.37;;;9.00;97.30;;;;;;5095634;28;20028;-86
2022/10/19 03:02:08;;;;;;;3.77;1.10;;;9.00;97.30;;;;;;5078536;28;20043;-85
2022/10/19 03:04:34;;;;;;;3.40;1.40;;;9.00;97.40;;;;;;5078617;28;20021;-86
2022/10/19 03:07:00;;;;;;;5.73;1.47;;;9.00;97.50;;;;;;5062294;28;20031;-86
2022/10/19 03:09:26;;;;;;;4.00;1.33;;;8.90;97.50;;;;;;5095335;28;20051;-86
2022/10/19 03:11:51;;;;;;;6.87;1.37;;;8.90;97.60;;;;;;5095142;28;20122;-87
2022/10/19 03:14:17;;;;;;;6.50;1.70;;;8.90;97.70;;;;;;5095471;28;20116;-86
2022/10/19 03:16:42;;;;;;;4.23;1.30;;;8.90;97.80;;;;;;5061626;28;20032;-86
2022/10/19 03:19:08;;;;;;;4.17;1.23;;;8.90;97.80;;;;;;5078109;28;20028;-86
2022/10/19 03:21:34;;;;;;;6.00;1.80;;;9.00;98.00;;;;;;5061453;28;20115;-86
2022/10/19 03:24:00;;;;;;;4.53;1.40;;;8.80;98.00;;;;;;5094842;28;20492;-86
2022/10/19 03:26:26;;;;;;;9.27;1.43;;;8.80;98.10;;;;;;5078110;28;20031;-86
2022/10/19 03:28:51;;;;;;;6.20;2.13;;;8.90;98.20;;;;;;5095240;28;20016;-86
2022/10/19 03:31:17;;;;;;;4.13;1.80;;;8.80;98.20;;;;;;5078378;28;20054;-86
2022/10/19 03:33:43;;;;;;;7.77;2.90;;;8.80;98.40;;;;;;5078075;28;20034;-86
2022/10/19 03:36:12;;;;;;;6.00;1.83;;;8.80;98.40;;;;;;5078055;28;20025;-86
2022/10/19 03:38:38;;;;;;;6.37;1.83;;;8.80;98.50;;;;;;5095249;28;20028;-86
2022/10/19 03:41:07;;;;;;;6.10;1.87;;;8.70;98.60;;;;;;5061098;28;20038;-86
2022/10/19 03:43:33;;;;;;;5.30;2.30;;;8.70;98.60;;;;;;5077803;28;20109;-86
2022/10/19 03:45:59;;;;;;;10.03;2.40;;;8.70;98.70;;;;;;5061269;28;20028;-86
2022/10/19 03:48:25;;;;;;;6.87;1.67;;;8.70;98.80;;;;;;5075755;28;20544;-86
2022/10/19 03:51:02;;;;;;;7.00;2.10;;;8.70;98.80;;;;;;5058265;28;20029;-86
2022/10/19 03:53:30;;;;;;;5.63;2.10;;;8.70;98.90;;;;;;5074593;28;20028;-86
2022/10/19 03:56:26;;;;;;;5.77;1.70;;;8.70;99.00;;;;;;5058126;28;20028;-86
2022/10/19 03:58:54;;;;;;;7.07;2.00;;;8.70;99.00;;;;;;5070918;28;20042;-85
2022/10/19 04:01:26;;;;;;;7.10;1.80;;;8.70;99.10;;;;;;5075175;28;20028;-85
2022/10/19 04:03:57;;;;;;;7.93;1.90;;;8.60;99.10;;;;;;5093890;28;20475;-86
2022/10/19 04:06:28;;;;;;;7.63;2.03;;;8.60;99.20;;;;;;5099853;28;20016;-86
2022/10/19 04:08:54;;;;;;;9.63;2.33;;;8.60;99.30;;;;;;5108498;28;20020;-85
2022/10/19 04:11:22;;;;;;;6.30;1.53;;;8.70;99.30;;;;;;5107074;28;20506;-85
2022/10/19 04:13:49;;;;;;;8.20;2.27;;;8.60;99.30;;;;;;5103333;28;20020;-86
2022/10/19 04:16:15;;;;;;;8.07;2.43;;;8.50;99.30;;;;;;5101044;28;20020;-86
2022/10/19 04:18:41;;;;;;;8.93;2.03;;;8.40;99.40;;;;;;5081475;28;20021;-87
2022/10/19 04:21:20;;;;;;;6.70;1.90;;;8.50;99.50;;;;;;5080556;28;20095;-87
2022/10/19 04:23:46;;;;;;;6.90;1.83;;;8.50;99.50;;;;;;5088817;28;20055;-86
2022/10/19 04:26:12;;;;;;;6.03;1.80;;;8.50;99.50;;;;;;5073536;28;20060;-86
2022/10/19 04:29:39;;;;;;;4.77;1.90;;;8.50;99.60;;;;;;5073217;28;20035;-86
2022/10/19 04:39:06;;;;;;;8.73;1.60;;;8.40;99.60;;;;;;4996767;28;20049;-86
2022/10/19 04:45:26;;;;;;;;;;;;;;;;;;;;;
2022/10/19 04:48:25;;;;;;;;;;;;;;;;;;;;;
2022/10/19 04:51:20;;;;;;;6.83;1.47;;;8.30;99.70;;;;;;5032491;28;20140;-86
2022/10/19 04:54:39;;;;;;;;;;;;;;;;;;;;;
2022/10/19 04:57:05;;;;;;;8.97;1.70;;;8.30;99.90;;;;;;5028746;28;20540;-87
2022/10/19 04:59:31;;;;;;;5.10;1.63;;;8.20;99.90;;;;;;4983167;28;20037;-87
2022/10/19 05:01:56;;;;;;;4.03;1.50;;;8.20;99.90;;;;;;5015899;28;20140;-86
2022/10/19 05:04:25;;;;;;;6.23;1.73;;;8.20;99.90;;;;;;4999318;28;20030;-88
2022/10/19 05:06:50;;;;;;;4.03;1.60;;;8.20;99.90;;;;;;5060878;28;20045;-87
2022/10/19 05:09:16;;;;;;;4.90;1.83;;;8.20;99.90;;;;;;5073292;28;20082;-87
2022/10/19 05:11:42;;;;;;;6.03;1.60;;;8.20;99.90;;;;;;5056243;28;20063;-87
2022/10/19 05:14:07;;;;;;;3.87;1.27;;;8.10;99.90;;;;;;5074064;28;20038;-87
2022/10/19 05:16:33;;;;;;;5.30;0.90;;;8.10;99.90;;;;;;5062412;28;20123;-86
2022/10/19 05:18:59;;;;;;;3.43;1.10;;;8.00;99.90;;;;;;5074064;28;20024;-86
2022/10/19 05:21:27;;;;;;;2.40;1.00;;;8.00;99.90;;;;;;5072748;28;20024;-86
2022/10/19 05:23:54;;;;;;;3.90;1.10;;;8.00;99.90;;;;;;5089852;28;20021;-86
2022/10/19 05:26:22;;;;;;;3.20;1.00;;;8.00;99.90;;;;;;5072845;28;20469;-86
2022/10/19 05:28:56;;;;;;;3.93;1.20;;;7.90;99.90;;;;;;5089456;28;20033;-86
2022/10/19 05:31:23;;;;;;;5.45;1.00;;;7.90;99.90;;;;;;5074023;28;20059;-85
2022/10/19 05:33:49;;;;;;;2.70;1.10;;;7.90;99.90;;;;;;5073278;28;20042;-86
2022/10/19 05:36:21;;;;;;;4.13;1.60;;;7.80;99.90;;;;;;5072607;28;20028;-86
2022/10/19 05:38:50;;;;;;;6.43;1.63;;;7.80;99.90;;;;;;5089902;28;20016;-86
2022/10/19 05:41:16;;;;;;;2.80;1.27;;;7.80;99.90;;;;;;5089268;28;20028;-86
2022/10/19 05:43:42;;;;;;;4.07;1.47;;;7.80;99.90;;;;;;5072725;28;20033;-85
2022/10/19 05:46:14;;;;;;;5.63;1.40;;;7.90;99.90;;;;;;5072695;28;20029;-86
2022/10/19 05:48:40;;;;;;;3.43;1.30;;;7.80;99.90;;;;;;5089399;28;20094;-85
2022/10/19 05:51:08;;;;;;;3.50;1.30;;;7.80;99.90;;;;;;5089589;28;20024;-86
2022/10/19 05:53:34;;;;;;;4.33;1.20;;;7.80;99.90;;;;;;5089429;28;20074;-85
2022/10/19 05:56:02;;;;;;;5.00;1.90;;;7.70;99.90;;;;;;5055928;28;20024;-85
2022/10/19 05:58:29;;;;;;;6.10;1.77;;;7.70;99.90;;;;;;5089385;28;20115;-85
2022/10/19 06:00:57;;;;;;;5.13;1.40;;;7.70;99.90;;;;;;5089330;28;20032;-85
2022/10/19 06:03:24;;;;;;;6.07;1.57;;;7.70;99.90;;;;;;5089476;28;20465;-85
2022/10/19 06:05:50;;;;;;;5.47;1.83;;;7.70;99.90;;;;;;5089573;28;20512;-84
2022/10/19 06:08:17;;;;;;;4.00;1.40;;;7.70;99.90;;;;;;5072806;28;20511;-85
2022/10/19 06:10:43;;;;;;;4.70;2.13;;;7.70;99.90;;;;;;5089669;28;20370;-85
2022/10/19 06:13:09;;;;;;;6.73;2.57;;;7.80;99.90;;;;;;5073337;28;20550;-85
2022/10/19 06:15:38;;;;;;;7.00;2.20;;;7.70;99.90;;;;;;5090275;28;20025;-85
2022/10/19 06:18:05;;;;;;;6.50;3.20;;;7.70;99.90;;;;;;5089242;28;20119;-86
2022/10/19 06:20:35;;;;;;;12.10;2.73;;;7.70;99.90;;;;;;5089425;28;20024;-85
2022/10/19 06:23:01;;;;;;;7.47;3.20;;;7.80;99.90;;;;;;5073673;28;20028;-86
2022/10/19 06:25:28;;;;;;;8.63;2.90;;;7.80;99.90;;;;;;5091340;28;20511;-86
2022/10/19 06:27:53;;;;;;;6.90;2.40;;;7.80;99.90;;;;;;5075765;28;20048;-87
2022/10/19 06:30:19;;;;;;;8.70;3.80;;;7.80;99.90;;;;;;5076967;28;20117;-86
2022/10/19 06:32:45;;;;;;;7.97;2.90;;;7.80;99.90;;;;;;5076072;28;20035;-86
2022/10/19 06:35:10;;;;;;;8.50;3.43;;;7.70;99.90;;;;;;5075619;28;20024;-86
2022/10/19 06:37:36;;;;;;;6.20;2.97;;;7.90;99.90;;;;;;5073989;28;20101;-86
2022/10/19 06:40:02;;;;;;;8.90;3.03;;;7.90;99.90;;;;;;5096245;28;20020;-86
2022/10/19 06:42:28;;;;;;;7.97;2.67;;;7.90;99.90;;;;;;5078738;28;20039;-86
2022/10/19 06:44:54;;;;;;;10.37;3.40;;;8.00;99.90;;;;;;5078965;28;20020;-86
2022/10/19 06:47:19;;;;;;;7.50;3.30;;;8.00;99.90;;;;;;5079140;28;20028;-86
2022/10/19 06:49:45;;;;;;;9.13;3.13;;;8.10;99.90;;;;;;5079352;28;20064;-86
2022/10/19 06:52:10;;;;;;;8.03;2.93;;;8.10;99.90;;;;;;5062506;28;20039;-87
2022/10/19 06:54:36;;;;;;;8.30;3.33;;;8.10;99.90;;;;;;5096133;28;20036;-87
2022/10/19 06:57:02;;;;;;;6.07;2.77;;;8.40;99.90;;;;;;5062213;28;20380;-87
2022/10/19 06:59:27;;;;;;;11.33;3.67;;;8.20;99.90;;;;;;5095713;28;20035;-86
2022/10/19 07:01:53;;;;;;;7.90;3.20;;;8.20;99.90;;;;;;5062195;28;20102;-86
2022/10/19 07:04:19;;;;;;;9.40;3.73;;;8.40;99.90;;;;;;5078733;28;20032;-86
2022/10/19 07:06:44;;;;;;;12.00;3.77;;;8.40;99.90;;;;;;5061973;28;20028;-88
2022/10/19 07:09:10;;;;;;;10.50;4.20;;;8.40;99.90;;;;;;5095615;28;20024;-86
2022/10/19 07:11:36;;;;;;;11.40;3.87;;;8.50;99.90;;;;;;5095184;28;20040;-87
2022/10/19 07:14:01;;;;;;;7.83;3.17;;;8.60;99.90;;;;;;5095154;28;20042;-86
2022/10/19 07:16:27;;;;;;;7.20;3.13;;;8.60;99.90;;;;;;5096195;28;20028;-86
2022/10/19 07:18:53;;;;;;;13.63;5.27;;;8.70;99.90;;;;;;5078409;28;20032;-87
2022/10/19 07:21:20;;;;;;;8.27;3.40;;;8.70;99.90;;;;;;5095251;28;20028;-87
2022/10/19 07:23:47;;;;;;;10.63;3.90;;;8.80;99.90;;;;;;5095230;28;20041;-86
2022/10/19 07:26:17;;;;;;;6.87;3.33;;;8.90;99.90;;;;;;5095377;28;20384;-86
2022/10/19 07:28:45;;;;;;;13.77;4.77;;;8.90;99.90;;;;;;5095253;28;20055;-87
2022/10/19 07:31:14;;;;;;;10.30;3.70;;;8.90;99.90;;;;;;5094905;28;20471;-87
2022/10/19 07:33:39;;;;;;;8.80;3.20;;;9.10;99.90;;;;;;5095172;28;20112;-86
2022/10/19 07:36:07;;;;;;;7.70;3.30;;;9.10;99.90;;;;;;5094079;28;20048;-86
2022/10/19 07:38:34;;;;;;;9.10;3.67;;;9.30;99.90;;;;;;5094776;28;20107;-85
2022/10/19 07:41:12;;;;;;;6.80;3.57;;;9.30;99.90;;;;;;5078162;28;20069;-86
2022/10/19 07:43:38;;;;;;;11.03;4.10;;;9.30;99.90;;;;;;5095059;28;20025;-87
2022/10/19 07:46:06;;;;;;;10.70;4.13;;;9.40;99.90;;;;;;5094815;28;20024;-87
2022/10/19 07:48:33;;;;;;;8.93;3.67;;;9.40;99.90;;;;;;5094644;28;20031;-86
2022/10/19 07:51:01;;;;;;;8.37;3.57;;;9.50;99.90;;;;;;5094581;28;20115;-84
2022/10/19 07:53:27;;;;;;;9.30;3.57;;;9.60;99.90;;;;;;5094163;28;20028;-85
2022/10/19 07:55:53;;;;;;;8.30;3.63;;;9.70;99.90;;;;;;5094010;28;20020;-87
2022/10/19 07:58:19;;;;;;;8.53;3.23;;;9.70;99.90;;;;;;5093737;28;20165;-82
2022/10/19 08:00:45;;;;;;;11.27;3.50;;;9.80;99.90;;;;;;5093655;28;20024;-81
2022/10/19 08:03:10;;;;;;;9.97;4.40;;;9.70;99.90;;;;;;5093703;28;20031;-82
2022/10/19 08:05:36;;;;;;;16.03;5.00;;;9.90;99.90;;;;;;5093653;28;20020;-82
2022/10/19 08:08:02;;;;;;;11.20;5.40;;;10.00;99.90;;;;;;5076743;28;20449;-81
2022/10/19 08:10:28;;;;;;;16.30;7.23;;;10.10;99.90;;;;;;5093173;28;20488;-80
2022/10/19 08:12:53;;;;;;;15.13;6.53;;;10.10;99.90;;;;;;5093395;28;20052;-82
2022/10/19 08:15:19;;;;;;;18.47;7.27;;;10.20;99.90;;;;;;5076492;28;20031;-82
2022/10/19 08:17:44;;;;;;;17.03;7.20;;;10.20;99.90;;;;;;5093264;28;20384;-81
2022/10/19 08:20:10;;;;;;;16.13;7.23;;;10.30;99.90;;;;;;5076693;28;20386;-82
2022/10/19 08:22:36;;;;;;;12.03;5.73;;;10.30;99.90;;;;;;5094410;28;20020;-82
2022/10/19 08:25:01;;;;;;;14.17;5.83;;;10.40;99.90;;;;;;5093185;28;20012;-82
2022/10/19 08:27:28;;;;;;;16.30;6.17;;;10.50;99.90;;;;;;5076342;28;20468;-82
2022/10/19 08:29:54;;;;;;;14.17;5.43;;;10.50;99.90;;;;;;5093485;28;20078;-82
2022/10/19 08:32:20;;;;;;;13.27;5.33;;;10.60;99.90;;;;;;5076386;28;20048;-82
2022/10/19 08:34:45;;;;;;;16.83;6.53;;;10.60;99.90;;;;;;5093074;28;20024;-82
2022/10/19 08:37:11;;;;;;;18.30;7.37;;;10.70;99.90;;;;;;5093181;28;20020;-81
2022/10/19 08:39:37;;;;;;;16.90;6.97;;;10.80;99.90;;;;;;5076000;28;20087;-82
2022/10/19 08:42:16;;;;;;;16.13;8.00;;;10.90;99.90;;;;;;5076119;28;20115;-81
2022/10/19 08:44:56;;;;;;;18.37;7.93;;;10.90;99.90;;;;;;5092883;28;20016;-82
2022/10/19 08:47:52;;;;;;;13.83;6.97;;;11.00;99.90;;;;;;5092289;28;20048;-82
2022/10/19 08:50:25;;;;;;;17.87;6.87;;;11.10;99.90;;;;;;5093079;28;20020;-82
2022/10/19 08:53:05;;;;;;;15.52;6.35;;;11.10;99.90;;;;;;5092837;28;20016;-82
2022/10/19 08:55:50;;;;;;;12.70;4.55;;;11.20;99.90;;;;;;5092896;28;20028;-81
2022/10/19 08:58:34;;;;;;;9.45;4.78;;;11.30;99.90;;;;;;5092936;28;20016;-82
2022/10/19 09:01:34;;;;;;;6.95;3.17;;;11.30;99.90;;;;;;5093006;28;20024;-80
2022/10/19 09:04:08;;;;;;;8.68;4.25;;;11.40;99.90;;;;;;5087778;28;20044;-81
2022/10/19 09:06:43;;;;;;;;;;;11.50;99.90;;;;;;5092997;28;20066;-81
2022/10/19 09:09:12;;;;;;;6.85;2.92;;;11.60;99.90;;;;;;5092901;28;19957;-81
2022/10/19 09:11:44;;;;;;;9.07;3.10;;;11.70;99.90;;;;;;5091792;28;20044;-80
2022/10/19 09:14:14;;;;;;;11.82;4.15;;;11.70;99.90;;;;;;5091164;28;20024;-81
2022/10/19 09:16:39;;;;;;;8.75;3.20;;;11.80;99.90;;;;;;5092331;28;20039;-81
2022/10/19 09:19:20;;;;;;;10.48;3.92;;;11.80;99.90;;;;;;5075342;28;20029;-81
2022/10/19 09:21:50;;;;;;;9.48;4.05;;;11.90;99.90;;;;;;5093611;28;20020;-81
2022/10/19 09:24:34;;;;;;;7.28;2.97;;;12.00;99.90;;;;;;5093490;28;20039;-81
2022/10/19 09:27:01;;;;;;;;;;;12.10;99.90;;;;;;5092561;28;20062;-81
2022/10/19 09:29:35;;;;;;;9.80;2.40;;;12.30;99.90;;;;;;5093504;28;19904;-84
2022/10/19 09:32:14;;;;;;;7.28;2.28;;;12.40;99.90;;;;;;5092505;28;20043;-84
2022/10/19 09:34:56;;;;;;;9.13;3.25;;;12.60;99.90;;;;;;5092170;28;20114;-83
2022/10/19 09:37:23;;;;;;;6.15;2.88;;;12.90;99.90;;;;;;5093562;28;20024;-84
2022/10/19 09:39:49;;;;;;;6.13;2.42;;;13.30;99.90;;;;;;5091928;28;20426;-84
2022/10/19 09:42:32;;;;;;;6.50;1.90;;;13.70;99.90;;;;;;5084850;28;20036;-84
2022/10/19 09:45:22;;;;;;;7.53;1.50;;;14.30;99.90;;;;;;5092504;28;20031;-84
2022/10/19 09:47:48;;;;;;;2.38;0.95;;;14.80;99.90;;;;;;5091572;28;20024;-84
2022/10/19 09:50:20;;;;;;;4.32;1.23;;;15.60;99.90;;;;;;5092831;28;20047;-85
2022/10/19 09:52:48;;;;;;;3.53;1.10;;;16.20;99.90;;;;;;5092637;28;20027;-84
2022/10/19 09:55:16;;;;;;;3.17;1.10;;;16.90;99.90;;;;;;5092078;28;20016;-83
2022/10/19 09:57:48;;;;;;;5.15;0.93;;;17.70;99.90;;;;;;5094129;28;20468;-83
2022/10/19 10:00:26;;;;;;;4.90;0.93;;;18.40;99.10;;;;;;5094698;28;20062;-85
2022/10/19 10:02:53;;;;;;;2.58;0.73;;;19.10;96.10;;;;;;5096638;28;20028;-83
2022/10/19 10:05:31;;;;;;;2.45;0.50;;;19.60;93.10;;;;;;5097239;28;20387;-83
2022/10/19 10:08:25;;;;;;;4.22;0.38;;;20.10;90.90;;;;;;5095668;28;20020;-85
2022/10/19 10:11:03;;;;;;;;;;;20.80;87.10;;;;;;5094564;28;20048;-84
2022/10/19 10:13:29;;;;;;;4.55;0.50;;;21.30;84.20;;;;;;5095976;28;19904;-84
2022/10/19 10:15:58;;;;;;;2.65;0.40;;;21.70;82.00;;;;;;5095736;28;20429;-85
2022/10/19 10:18:28;;;;;;;4.00;0.57;;;22.10;77.50;;;;;;5096112;28;20032;-84
2022/10/19 10:21:11;;;;;;;5.30;0.50;;;22.30;75.00;;;;;;5096178;28;20500;-84
2022/10/19 10:23:37;;;;;;;2.90;0.60;;;22.90;72.10;;;;;;5096883;28;20531;-85
2022/10/19 10:26:19;;;;;;;2.80;0.80;;;23.50;71.20;;;;;;5096526;28;20172;-84
2022/10/19 10:28:47;;;;;;;3.70;0.68;;;24.10;67.50;;;;;;5095123;28;20357;-82
2022/10/19 10:31:13;;;;;;;2.15;0.40;;;24.30;66.40;;;;;;5096971;28;20028;-83
2022/10/19 10:33:43;;;;;;;2.75;0.30;;;24.60;64.70;;;;;;5096864;28;20622;-84
2022/10/19 10:36:10;;;;;;;2.40;0.70;;;25.00;62.60;;;;;;5078947;28;20039;-83
2022/10/19 10:38:50;;;;;;;7.93;0.82;;;25.40;60.80;;;;;;5095226;28;20024;-85
2022/10/19 10:41:23;;;;;;;3.17;0.50;;;25.50;57.70;;;;;;5095149;28;20051;-84
2022/10/19 10:44:14;;;;;;;2.70;0.35;;;25.70;57.70;;;;;;5095149;28;20107;-81
2022/10/19 10:47:01;;;;;;;3.33;0.40;;;26.00;57.10;;;;;;5083687;28;20059;-84
2022/10/19 10:49:38;;;;;;;2.78;0.40;;;26.40;54.80;;;;;;5095225;28;20031;-84
2022/10/19 10:52:08;;;;;;;2.10;0.50;;;26.60;54.50;;;;;;5095054;28;20024;-85
2022/10/19 10:54:34;;;;;;;2.80;0.40;;;26.70;53.80;;;;;;5095487;28;20472;-84
2022/10/19 10:57:18;;;;;;;2.25;0.40;;;26.70;52.70;;;;;;5095699;28;20047;-83
2022/10/19 11:00:13;;;;;;;2.92;0.40;;;26.80;50.50;;;;;;5095312;28;20061;-84
2022/10/19 11:03:08;;;;;;;3.55;0.82;;;26.70;50.20;;;;;;5059046;28;20153;-83
2022/10/19 11:05:45;;;;;;;2.63;0.40;;;26.60;50.30;;;;;;5091578;28;20036;-84
2022/10/19 11:08:11;;;;;;;5.00;0.32;;;26.60;50.40;;;;;;5096050;28;20372;-83
2022/10/19 11:10:51;;;;;;;4.25;0.52;;;26.60;50.10;;;;;;5093963;28;20048;-84
2022/10/19 11:13:23;;;;;;;4.25;0.50;;;26.60;49.30;;;;;;5094870;28;20038;-83
2022/10/19 11:15:56;;;;;;;3.30;0.40;;;26.40;48.80;;;;;;5094905;28;20024;-83
2022/10/19 11:18:34;;;;;;;7.05;0.60;;;26.30;48.60;;;;;;5094592;28;20383;-84
2022/10/19 11:21:09;;;;;;;3.25;0.50;;;26.40;48.80;;;;;;5094923;28;20457;-84
2022/10/19 11:23:50;;;;;;;4.18;0.50;;;26.60;48.70;;;;;;5094818;28;20031;-82
2022/10/19 11:26:42;;;;;;;2.80;0.40;;;26.80;48.30;;;;;;5095954;28;20070;-83
2022/10/19 11:29:25;;;;;;;2.88;0.50;;;26.80;47.70;;;;;;5094633;28;20020;-82
2022/10/19 11:31:54;;;;;;;2.88;0.40;;;27.00;47.70;;;;;;5094226;28;20024;-83
2022/10/19 11:34:28;;;;;;;3.97;0.50;;;27.00;47.80;;;;;;5094609;28;20028;-82
2022/10/19 11:37:14;;;;;;;2.35;0.43;;;27.10;47.70;;;;;;5094421;28;20024;-81
2022/10/19 11:39:59;;;;;;;4.10;0.60;;;27.30;46.90;;;;;;5094130;28;20430;-82
2022/10/19 11:42:43;;;;;;;3.17;0.65;;;27.50;46.60;;;;;;5093981;28;20040;-83
2022/10/19 11:45:41;;;;;;;2.88;0.43;;;27.60;45.90;;;;;;5095225;28;20437;-82
2022/10/19 11:48:37;;;;;;;4.30;0.57;;;27.60;45.80;;;;;;5093876;28;20422;-80
2022/10/19 11:51:14;;;;;;;2.53;0.50;;;27.70;45.50;;;;;;5094265;28;20081;-83
2022/10/19 11:54:33;;;;;;;5.07;0.55;;;28.00;45.70;;;;;;5094073;28;20070;-82
2022/10/19 11:57:12;;;;;;;2.60;0.40;;;28.20;45.00;;;;;;4996875;28;20056;-82
2022/10/19 12:00:15;;;;;;;4.30;0.63;;;28.40;45.10;;;;;;4996577;28;20041;-82
2022/10/19 12:03:08;;;;;;;3.50;0.43;;;28.70;44.50;;;;;;5070928;28;20392;-83
2022/10/19 12:05:43;;;;;;;5.78;0.57;;;29.00;44.80;;;;;;5093268;28;20403;-81
2022/10/19 12:08:25;;;;;;;3.28;0.40;;;29.30;44.70;;;;;;5093963;28;20031;-84
2022/10/19 12:11:09;;;;;;;5.63;0.98;;;29.50;43.60;;;;;;5093308;28;20043;-82
2022/10/19 12:13:49;;;;;;;2.40;0.40;;;29.90;43.20;;;;;;5093403;28;20024;-83
2022/10/19 12:16:18;;;;;;;3.15;0.50;;;30.20;42.80;;;;;;5093433;28;20462;-83
2022/10/19 12:18:52;;;;;;;3.10;0.43;;;30.40;42.80;;;;;;5084820;28;20082;-83
2022/10/19 12:21:28;;;;;;;5.10;0.70;;;30.70;42.30;;;;;;5092407;28;20051;-82
2022/10/19 12:23:56;;;;;;;2.88;0.57;;;31.00;42.20;;;;;;5092690;28;20074;-79
2022/10/19 12:26:23;;;;;;;4.75;0.52;;;31.20;41.80;;;;;;5094681;28;20021;-78
2022/10/19 12:28:54;;;;;;;4.00;0.60;;;31.50;41.50;;;;;;5083272;28;20405;-80
2022/10/19 12:31:22;;;;;;;2.65;0.40;;;31.80;41.20;;;;;;5081525;28;20020;-80
2022/10/19 12:34:06;;;;;;;3.45;0.40;;;32.00;40.70;;;;;;5086934;28;20028;-78
2022/10/19 12:36:37;;;;;;;5.15;0.60;;;32.30;40.00;;;;;;5093469;28;20031;-79
2022/10/19 12:39:08;;;;;;;3.50;0.60;;;32.30;38.90;;;;;;5093217;28;20123;-79
2022/10/19 12:41:53;;;;;;;3.03;0.50;;;32.30;38.70;;;;;;5093015;28;20506;-79
2022/10/19 12:44:40;;;;;;;2.88;0.52;;;32.40;38.80;;;;;;5094627;28;20068;-78
2022/10/19 12:47:18;;;;;;;5.00;0.50;;;32.50;38.60;;;;;;5093771;28;20020;-81
2022/10/19 12:49:45;;;;;;;3.67;0.60;;;32.50;37.90;;;;;;5093225;28;20047;-80
2022/10/19 12:52:12;;;;;;;4.07;0.57;;;32.40;37.90;;;;;;5093211;28;20023;-82
2022/10/19 12:54:40;;;;;;;5.13;0.63;;;32.40;37.90;;;;;;5093148;28;20024;-82
2022/10/19 12:57:27;;;;;;;3.90;0.70;;;32.40;37.80;;;;;;5092742;28;20438;-84
2022/10/19 13:00:21;;;;;;;1.75;0.40;;;32.60;37.30;;;;;;5092729;28;20024;-83
2022/10/19 13:03:01;;;;;;;3.08;0.50;;;32.80;37.30;;;;;;5093008;28;20020;-82
2022/10/19 13:05:29;;;;;;;4.63;0.60;;;32.80;37.10;;;;;;5092581;28;20133;-82
2022/10/19 13:07:55;;;;;;;2.40;0.50;;;32.80;37.00;;;;;;5093869;28;20027;-83
2022/10/19 13:10:24;;;;;;;1.92;0.40;;;32.90;37.10;;;;;;5075810;28;20044;-82
2022/10/19 13:12:50;;;;;;;4.95;0.60;;;33.00;36.90;;;;;;5092462;28;20028;-81
2022/10/19 13:15:35;;;;;;;2.67;0.40;;;33.10;36.70;;;;;;5092461;28;20035;-78
2022/10/19 13:18:02;;;;;;;4.40;0.70;;;33.20;36.20;;;;;;5092190;28;20111;-84
2022/10/19 13:20:28;;;;;;;3.60;0.60;;;33.20;36.40;;;;;;5093265;28;20040;-84
2022/10/19 13:22:59;;;;;;;1.50;0.30;;;33.20;36.20;;;;;;5092706;28;20016;-83
2022/10/19 13:25:41;;;;;;;4.10;0.70;;;33.30;35.90;;;;;;5093517;28;20491;-83
2022/10/19 13:28:08;;;;;;;2.83;0.40;;;33.40;35.80;;;;;;5092500;28;20107;-82
2022/10/19 13:30:48;;;;;;;3.53;0.40;;;33.60;36.80;;;;;;5092271;28;20020;-83
2022/10/19 13:33:30;;;;;;;3.55;0.60;;;33.80;35.70;;;;;;5092275;28;20056;-86